sensor_id;sensor_type;location;lat;lon;timestamp;pressure;altitude;pressure_sealevel;temperature;humidity
55289;BME280;41154;45.394;5.734;2022-08-11T00:01:14;97099.16;;;19.70;62.56
55289;BME280;41154;45.394;5.734;2022-08-11T00:06:31;97106.13;;;19.63;63.42
55289;BME280;41154;45.394;5.734;2022-08-11T00:09:01;97098.28;;;19.61;63.75
55289;BME280;41154;45.394;5.734;2022-08-11T00:11:40;97096.06;;;19.49;64.88
55289;BME280;41154;45.394;5.734;2022-08-11T00:14:16;97105.72;;;19.19;65.60
55289;BME280;41154;45.394;5.734;2022-08-11T00:16:51;97097.53;;;19.19;66.52
55289;BME280;41154;45.394;5.734;2022-08-11T00:19:24;97112.47;;;19.21;65.95
55289;BME280;41154;45.394;5.734;2022-08-11T00:21:52;97105.81;;;19.00;66.36
55289;BME280;41154;45.394;5.734;2022-08-11T00:24:20;97110.25;;;19.10;66.65
55289;BME280;41154;45.394;5.734;2022-08-11T00:26:48;97106.38;;;18.83;67.52
55289;BME280;41154;45.394;5.734;2022-08-11T00:29:14;97099.56;;;18.99;67.14
55289;BME280;41154;45.394;5.734;2022-08-11T00:31:50;97109.44;;;18.95;67.66
55289;BME280;41154;45.394;5.734;2022-08-11T00:34:28;97112.66;;;19.25;65.53
55289;BME280;41154;45.394;5.734;2022-08-11T00:37:00;97112.03;;;19.28;65.71
55289;BME280;41154;45.394;5.734;2022-08-11T00:39:45;97112.16;;;19.09;66.62
55289;BME280;41154;45.394;5.734;2022-08-11T00:45:11;97105.38;;;18.79;68.64
55289;BME280;41154;45.394;5.734;2022-08-11T00:47:52;97112.72;;;18.78;68.47
55289;BME280;41154;45.394;5.734;2022-08-11T00:50:51;97117.13;;;18.74;68.78
55289;BME280;41154;45.394;5.734;2022-08-11T00:56:22;97121.53;;;18.89;67.98
55289;BME280;41154;45.394;5.734;2022-08-11T01:02:38;97114.22;;;18.71;69.04
55289;BME280;41154;45.394;5.734;2022-08-11T01:08:02;97114.63;;;18.78;69.02
55289;BME280;41154;45.394;5.734;2022-08-11T01:16:40;97116.78;;;18.48;69.71
55289;BME280;41154;45.394;5.734;2022-08-11T01:25:40;97117.31;;;18.50;68.77
55289;BME280;41154;45.394;5.734;2022-08-11T01:28:53;97109.38;;;18.21;69.84
55289;BME280;41154;45.394;5.734;2022-08-11T01:31:48;97112.59;;;18.23;69.88
55289;BME280;41154;45.394;5.734;2022-08-11T01:40:18;97107.19;;;18.04;71.23
55289;BME280;41154;45.394;5.734;2022-08-11T01:46:21;97114.00;;;17.82;73.46
55289;BME280;41154;45.394;5.734;2022-08-11T01:55:11;97110.03;;;17.74;73.93
55289;BME280;41154;45.394;5.734;2022-08-11T01:57:46;97100.06;;;17.70;74.79
55289;BME280;41154;45.394;5.734;2022-08-11T02:00:21;97101.16;;;17.50;75.19
55289;BME280;41154;45.394;5.734;2022-08-11T02:03:15;97112.34;;;17.86;74.22
55289;BME280;41154;45.394;5.734;2022-08-11T02:05:56;97100.97;;;17.46;76.18
55289;BME280;41154;45.394;5.734;2022-08-11T02:08:44;97114.31;;;17.42;75.56
55289;BME280;41154;45.394;5.734;2022-08-11T02:11:23;97102.03;;;17.45;75.97
55289;BME280;41154;45.394;5.734;2022-08-11T02:14:20;97109.66;;;17.43;76.17
55289;BME280;41154;45.394;5.734;2022-08-11T02:19:53;97101.69;;;17.71;74.20
55289;BME280;41154;45.394;5.734;2022-08-11T02:23:15;97093.84;;;17.50;75.27
55289;BME280;41154;45.394;5.734;2022-08-11T02:29:02;97095.97;;;17.53;74.50
55289;BME280;41154;45.394;5.734;2022-08-11T02:32:01;97101.91;;;17.55;74.70
55289;BME280;41154;45.394;5.734;2022-08-11T02:35:27;97094.00;;;17.59;75.01
55289;BME280;41154;45.394;5.734;2022-08-11T02:38:23;97090.91;;;17.47;75.78
55289;BME280;41154;45.394;5.734;2022-08-11T02:44:15;97085.13;;;17.34;76.33
55289;BME280;41154;45.394;5.734;2022-08-11T02:52:54;97077.22;;;17.38;75.87
55289;BME280;41154;45.394;5.734;2022-08-11T02:55:54;97087.56;;;17.12;77.95
55289;BME280;41154;45.394;5.734;2022-08-11T02:58:48;97081.38;;;16.87;79.42
55289;BME280;41154;45.394;5.734;2022-08-11T03:02:01;97075.59;;;16.94;78.88
55289;BME280;41154;45.394;5.734;2022-08-11T03:07:33;97093.19;;;16.67;79.78
55289;BME280;41154;45.394;5.734;2022-08-11T03:10:24;97084.63;;;16.84;79.16
55289;BME280;41154;45.394;5.734;2022-08-11T03:13:03;97078.41;;;16.83;79.65
55289;BME280;41154;45.394;5.734;2022-08-11T03:16:16;97082.53;;;17.05;78.10
55289;BME280;41154;45.394;5.734;2022-08-11T03:24:35;97084.16;;;16.77;80.32
55289;BME280;41154;45.394;5.734;2022-08-11T03:27:10;97088.72;;;16.81;81.04
55289;BME280;41154;45.394;5.734;2022-08-11T03:32:18;97082.63;;;16.95;80.04
55289;BME280;41154;45.394;5.734;2022-08-11T03:34:47;97091.47;;;16.76;80.58
55289;BME280;41154;45.394;5.734;2022-08-11T03:40:41;97096.94;;;16.17;84.04
55289;BME280;41154;45.394;5.734;2022-08-11T03:46:12;97083.16;;;16.43;83.29
55289;BME280;41154;45.394;5.734;2022-08-11T03:49:06;97085.47;;;16.55;82.07
55289;BME280;41154;45.394;5.734;2022-08-11T03:51:57;97079.81;;;16.51;82.52
55289;BME280;41154;45.394;5.734;2022-08-11T03:54:44;97084.72;;;16.49;82.75
55289;BME280;41154;45.394;5.734;2022-08-11T04:01:26;97076.03;;;16.23;84.56
55289;BME280;41154;45.394;5.734;2022-08-11T04:20:37;97092.81;;;16.20;84.91
55289;BME280;41154;45.394;5.734;2022-08-11T04:23:23;97099.31;;;15.90;86.43
55289;BME280;41154;45.394;5.734;2022-08-11T04:33:57;97097.06;;;15.97;86.64
55289;BME280;41154;45.394;5.734;2022-08-11T04:37:16;97092.66;;;16.11;85.97
55289;BME280;41154;45.394;5.734;2022-08-11T04:40:09;97099.31;;;15.85;87.37
55289;BME280;41154;45.394;5.734;2022-08-11T04:45:46;97099.63;;;16.17;85.87
55289;BME280;41154;45.394;5.734;2022-08-11T05:12:56;97112.38;;;17.24;80.54
55289;BME280;41154;45.394;5.734;2022-08-11T05:15:53;97119.13;;;17.27;80.24
55289;BME280;41154;45.394;5.734;2022-08-11T05:18:51;97124.16;;;16.85;81.67
55289;BME280;41154;45.394;5.734;2022-08-11T05:21:39;97128.34;;;17.01;81.50
55289;BME280;41154;45.394;5.734;2022-08-11T05:24:44;97123.69;;;17.07;81.37
55289;BME280;41154;45.394;5.734;2022-08-11T05:27:51;97124.78;;;17.49;79.23
55289;BME280;41154;45.394;5.734;2022-08-11T05:30:40;97126.31;;;17.55;78.67
55289;BME280;41154;45.394;5.734;2022-08-11T05:33:34;97119.28;;;17.54;80.33
55289;BME280;41154;45.394;5.734;2022-08-11T05:38:57;97119.09;;;18.08;77.73
55289;BME280;41154;45.394;5.734;2022-08-11T05:41:42;97122.66;;;18.22;76.99
55289;BME280;41154;45.394;5.734;2022-08-11T05:44:27;97128.03;;;18.41;77.90
55289;BME280;41154;45.394;5.734;2022-08-11T05:47:25;97124.03;;;18.53;76.05
55289;BME280;41154;45.394;5.734;2022-08-11T05:50:12;97124.09;;;18.80;75.87
55289;BME280;41154;45.394;5.734;2022-08-11T05:52:57;97121.88;;;18.68;76.68
55289;BME280;41154;45.394;5.734;2022-08-11T05:55:43;97128.16;;;18.97;74.21
55289;BME280;41154;45.394;5.734;2022-08-11T05:58:42;97118.16;;;20.21;71.94
55289;BME280;41154;45.394;5.734;2022-08-11T06:01:11;97119.97;;;23.63;58.79
55289;BME280;41154;45.394;5.734;2022-08-11T06:03:37;97117.09;;;25.02;53.26
55289;BME280;41154;45.394;5.734;2022-08-11T06:06:25;97128.78;;;26.26;49.54
55289;BME280;41154;45.394;5.734;2022-08-11T06:08:55;97121.38;;;27.34;47.09
55289;BME280;41154;45.394;5.734;2022-08-11T06:11:22;97127.31;;;27.52;44.34
55289;BME280;41154;45.394;5.734;2022-08-11T06:13:48;97125.00;;;27.54;45.29
55289;BME280;41154;45.394;5.734;2022-08-11T06:16:22;97129.75;;;27.73;44.54
55289;BME280;41154;45.394;5.734;2022-08-11T06:18:49;97126.75;;;28.57;43.61
55289;BME280;41154;45.394;5.734;2022-08-11T06:21:16;97132.22;;;27.27;46.79
55289;BME280;41154;45.394;5.734;2022-08-11T06:23:43;97127.09;;;27.77;45.46
55289;BME280;41154;45.394;5.734;2022-08-11T06:26:12;97124.28;;;28.12;42.87
55289;BME280;41154;45.394;5.734;2022-08-11T06:28:40;97123.41;;;28.90;41.61
55289;BME280;41154;45.394;5.734;2022-08-11T06:33:52;97120.78;;;28.97;43.21
55289;BME280;41154;45.394;5.734;2022-08-11T06:38:56;97123.91;;;29.42;42.78
55289;BME280;41154;45.394;5.734;2022-08-11T06:41:51;97115.75;;;29.26;43.02
55289;BME280;41154;45.394;5.734;2022-08-11T06:49:08;97119.84;;;30.91;39.91
55289;BME280;41154;45.394;5.734;2022-08-11T06:52:01;97112.25;;;31.26;38.08
55289;BME280;41154;45.394;5.734;2022-08-11T06:54:33;97122.22;;;30.21;39.59
55289;BME280;41154;45.394;5.734;2022-08-11T06:57:00;97118.00;;;30.65;39.77
55289;BME280;41154;45.394;5.734;2022-08-11T06:59:46;97115.84;;;33.02;34.51
55289;BME280;41154;45.394;5.734;2022-08-11T07:02:36;97114.09;;;32.33;35.26
55289;BME280;41154;45.394;5.734;2022-08-11T07:05:29;97115.34;;;32.57;33.51
55289;BME280;41154;45.394;5.734;2022-08-11T07:14:03;97107.06;;;32.64;33.19
55289;BME280;41154;45.394;5.734;2022-08-11T07:16:50;97121.44;;;32.00;33.66
55289;BME280;41154;45.394;5.734;2022-08-11T07:19:20;97119.50;;;32.04;33.15
55289;BME280;41154;45.394;5.734;2022-08-11T07:22:06;97107.31;;;32.23;33.42
55289;BME280;41154;45.394;5.734;2022-08-11T07:24:59;97112.66;;;32.93;31.59
55289;BME280;41154;45.394;5.734;2022-08-11T07:27:55;97117.00;;;31.84;33.83
55289;BME280;41154;45.394;5.734;2022-08-11T07:30:41;97114.63;;;28.42;39.68
55289;BME280;41154;45.394;5.734;2022-08-11T07:33:09;97109.84;;;31.76;37.15
55289;BME280;41154;45.394;5.734;2022-08-11T07:35:42;97105.03;;;32.57;34.04
55289;BME280;41154;45.394;5.734;2022-08-11T07:38:18;97105.75;;;34.94;30.90
55289;BME280;41154;45.394;5.734;2022-08-11T07:40:47;97108.19;;;32.52;32.89
55289;BME280;41154;45.394;5.734;2022-08-11T07:43:13;97114.94;;;34.10;30.46
55289;BME280;41154;45.394;5.734;2022-08-11T07:45:44;97110.19;;;33.92;29.98
55289;BME280;41154;45.394;5.734;2022-08-11T07:48:29;97101.88;;;33.81;31.62
55289;BME280;41154;45.394;5.734;2022-08-11T07:51:20;97097.56;;;33.12;29.57
55289;BME280;41154;45.394;5.734;2022-08-11T07:54:05;97108.03;;;34.43;30.18
55289;BME280;41154;45.394;5.734;2022-08-11T07:56:34;97091.16;;;36.97;25.78
55289;BME280;41154;45.394;5.734;2022-08-11T07:59:00;97091.16;;;36.04;26.90
55289;BME280;41154;45.394;5.734;2022-08-11T08:01:46;97104.16;;;35.42;27.16
55289;BME280;41154;45.394;5.734;2022-08-11T08:04:30;97104.19;;;34.12;29.65
55289;BME280;41154;45.394;5.734;2022-08-11T08:07:21;97105.06;;;35.77;27.66
55289;BME280;41154;45.394;5.734;2022-08-11T08:10:07;97094.88;;;35.56;27.25
55289;BME280;41154;45.394;5.734;2022-08-11T08:12:54;97092.31;;;35.31;27.32
55289;BME280;41154;45.394;5.734;2022-08-11T08:15:40;97104.84;;;38.26;23.36
55289;BME280;41154;45.394;5.734;2022-08-11T08:18:25;97102.72;;;38.30;23.41
55289;BME280;41154;45.394;5.734;2022-08-11T08:20:53;97104.06;;;35.53;26.81
55289;BME280;41154;45.394;5.734;2022-08-11T08:23:22;97100.22;;;35.39;27.91
55289;BME280;41154;45.394;5.734;2022-08-11T08:26:03;97099.88;;;33.89;30.30
55289;BME280;41154;45.394;5.734;2022-08-11T08:28:51;97094.63;;;36.46;29.77
55289;BME280;41154;45.394;5.734;2022-08-11T08:31:17;97085.47;;;35.80;28.16
55289;BME280;41154;45.394;5.734;2022-08-11T08:33:44;97086.66;;;35.83;26.71
55289;BME280;41154;45.394;5.734;2022-08-11T08:36:10;97084.28;;;35.81;28.85
55289;BME280;41154;45.394;5.734;2022-08-11T08:38:47;97090.44;;;36.00;26.98
55289;BME280;41154;45.394;5.734;2022-08-11T08:41:20;97094.44;;;37.15;27.62
55289;BME280;41154;45.394;5.734;2022-08-11T08:43:50;97089.06;;;36.15;28.38
55289;BME280;41154;45.394;5.734;2022-08-11T08:46:24;97091.25;;;35.14;28.98
55289;BME280;41154;45.394;5.734;2022-08-11T08:48:52;97086.22;;;36.50;27.91
55289;BME280;41154;45.394;5.734;2022-08-11T08:51:20;97081.91;;;36.45;27.29
55289;BME280;41154;45.394;5.734;2022-08-11T08:54:09;97074.75;;;37.22;26.84
55289;BME280;41154;45.394;5.734;2022-08-11T08:56:39;97080.38;;;36.41;27.72
55289;BME280;41154;45.394;5.734;2022-08-11T08:59:05;97077.94;;;37.21;27.14
55289;BME280;41154;45.394;5.734;2022-08-11T09:01:51;97076.53;;;37.56;27.40
55289;BME280;41154;45.394;5.734;2022-08-11T09:04:19;97074.09;;;36.60;27.44
55289;BME280;41154;45.394;5.734;2022-08-11T09:06:46;97077.09;;;36.73;27.87
55289;BME280;41154;45.394;5.734;2022-08-11T09:09:13;97077.56;;;39.32;23.22
55289;BME280;41154;45.394;5.734;2022-08-11T09:11:41;97072.84;;;38.03;24.02
55289;BME280;41154;45.394;5.734;2022-08-11T09:14:21;97075.75;;;38.56;23.56
55289;BME280;41154;45.394;5.734;2022-08-11T09:16:48;97069.28;;;37.83;25.08
55289;BME280;41154;45.394;5.734;2022-08-11T09:19:17;97069.97;;;39.16;23.25
55289;BME280;41154;45.394;5.734;2022-08-11T09:21:46;97065.44;;;39.35;23.03
55289;BME280;41154;45.394;5.734;2022-08-11T09:24:37;97066.81;;;38.61;24.28
55289;BME280;41154;45.394;5.734;2022-08-11T09:27:23;97064.53;;;39.84;22.22
55289;BME280;41154;45.394;5.734;2022-08-11T09:29:50;97056.59;;;38.18;23.53
55289;BME280;41154;45.394;5.734;2022-08-11T09:32:20;97051.94;;;35.46;26.12
55289;BME280;41154;45.394;5.734;2022-08-11T09:34:49;97054.75;;;34.37;28.14
55289;BME280;41154;45.394;5.734;2022-08-11T09:37:16;97043.38;;;34.07;28.88
55289;BME280;41154;45.394;5.734;2022-08-11T09:40:02;97045.56;;;32.76;30.01
55289;BME280;41154;45.394;5.734;2022-08-11T09:42:47;97040.41;;;33.07;31.10
55289;BME280;41154;45.394;5.734;2022-08-11T09:45:33;97043.13;;;33.61;29.36
55289;BME280;41154;45.394;5.734;2022-08-11T09:47:59;97038.38;;;33.58;29.32
55289;BME280;41154;45.394;5.734;2022-08-11T09:50:26;97031.25;;;33.14;30.49
55289;BME280;41154;45.394;5.734;2022-08-11T09:52:53;97032.84;;;33.15;33.73
55289;BME280;41154;45.394;5.734;2022-08-11T09:55:19;97034.06;;;33.18;32.99
55289;BME280;41154;45.394;5.734;2022-08-11T09:57:46;97032.72;;;33.87;29.31
55289;BME280;41154;45.394;5.734;2022-08-11T10:00:36;97032.75;;;33.69;29.55
55289;BME280;41154;45.394;5.734;2022-08-11T10:03:25;97019.34;;;32.95;31.61
55289;BME280;41154;45.394;5.734;2022-08-11T10:05:55;97017.38;;;33.32;32.38
55289;BME280;41154;45.394;5.734;2022-08-11T10:08:42;97016.97;;;33.30;30.99
55289;BME280;41154;45.394;5.734;2022-08-11T10:11:11;97009.41;;;33.41;32.35
55289;BME280;41154;45.394;5.734;2022-08-11T10:13:43;97007.84;;;33.04;31.98
55289;BME280;41154;45.394;5.734;2022-08-11T10:16:29;97009.44;;;33.23;32.95
55289;BME280;41154;45.394;5.734;2022-08-11T10:18:58;97008.53;;;33.62;32.42
55289;BME280;41154;45.394;5.734;2022-08-11T10:21:40;96991.53;;;33.46;32.12
55289;BME280;41154;45.394;5.734;2022-08-11T10:24:08;97000.63;;;33.46;32.03
55289;BME280;41154;45.394;5.734;2022-08-11T10:26:54;96993.53;;;33.17;31.71
55289;BME280;41154;45.394;5.734;2022-08-11T10:32:12;96985.44;;;33.83;32.76
55289;BME280;41154;45.394;5.734;2022-08-11T10:34:58;96983.19;;;33.46;32.00
55289;BME280;41154;45.394;5.734;2022-08-11T10:37:26;96982.19;;;33.92;29.61
55289;BME280;41154;45.394;5.734;2022-08-11T10:39:59;96980.84;;;33.05;30.71
55289;BME280;41154;45.394;5.734;2022-08-11T10:42:26;96974.56;;;32.65;30.67
55289;BME280;41154;45.394;5.734;2022-08-11T10:45:10;96972.09;;;33.21;30.35
55289;BME280;41154;45.394;5.734;2022-08-11T10:47:55;96969.72;;;33.05;30.65
55289;BME280;41154;45.394;5.734;2022-08-11T10:50:23;96964.59;;;32.92;30.82
55289;BME280;41154;45.394;5.734;2022-08-11T10:53:08;96969.72;;;33.34;30.05
55289;BME280;41154;45.394;5.734;2022-08-11T10:55:53;96961.06;;;32.67;30.88
55289;BME280;41154;45.394;5.734;2022-08-11T10:58:38;96956.22;;;33.14;31.57
55289;BME280;41154;45.394;5.734;2022-08-11T11:03:49;96959.91;;;33.99;32.90
55289;BME280;41154;45.394;5.734;2022-08-11T11:06:27;96956.75;;;33.97;33.48
55289;BME280;41154;45.394;5.734;2022-08-11T11:09:09;96957.00;;;33.32;32.54
55289;BME280;41154;45.394;5.734;2022-08-11T11:11:47;96952.69;;;32.99;31.35
55289;BME280;41154;45.394;5.734;2022-08-11T11:14:33;96951.13;;;32.66;29.74
55289;BME280;41154;45.394;5.734;2022-08-11T11:17:45;96949.13;;;32.73;30.34
55289;BME280;41154;45.394;5.734;2022-08-11T11:20:43;96938.03;;;32.81;30.78
55289;BME280;41154;45.394;5.734;2022-08-11T11:23:22;96945.91;;;33.18;31.25
55289;BME280;41154;45.394;5.734;2022-08-11T11:26:22;96933.13;;;33.46;28.78
55289;BME280;41154;45.394;5.734;2022-08-11T11:37:32;96928.09;;;32.87;27.03
55289;BME280;41154;45.394;5.734;2022-08-11T11:40:15;96921.31;;;34.01;28.24
55289;BME280;41154;45.394;5.734;2022-08-11T11:42:47;96928.84;;;34.08;27.46
55289;BME280;41154;45.394;5.734;2022-08-11T11:45:16;96920.09;;;34.06;26.64
55289;BME280;41154;45.394;5.734;2022-08-11T11:47:43;96927.69;;;33.98;27.66
55289;BME280;41154;45.394;5.734;2022-08-11T11:50:10;96927.06;;;33.73;28.80
55289;BME280;41154;45.394;5.734;2022-08-11T11:52:38;96916.28;;;33.82;27.18
55289;BME280;41154;45.394;5.734;2022-08-11T11:55:05;96917.91;;;33.68;28.59
55289;BME280;41154;45.394;5.734;2022-08-11T11:57:32;96911.94;;;33.74;27.60
55289;BME280;41154;45.394;5.734;2022-08-11T12:00:17;96918.56;;;32.84;28.21
55289;BME280;41154;45.394;5.734;2022-08-11T12:03:06;96915.34;;;33.07;29.05
55289;BME280;41154;45.394;5.734;2022-08-11T12:05:34;96911.84;;;32.74;28.41
55289;BME280;41154;45.394;5.734;2022-08-11T12:08:01;96903.91;;;32.51;27.25
55289;BME280;41154;45.394;5.734;2022-08-11T12:13:13;96902.28;;;33.01;27.71
55289;BME280;41154;45.394;5.734;2022-08-11T12:15:59;96895.19;;;32.53;27.90
55289;BME280;41154;45.394;5.734;2022-08-11T12:18:31;96894.72;;;33.01;28.31
55289;BME280;41154;45.394;5.734;2022-08-11T12:21:00;96902.06;;;33.55;28.33
55289;BME280;41154;45.394;5.734;2022-08-11T12:23:26;96890.84;;;33.80;27.53
55289;BME280;41154;45.394;5.734;2022-08-11T12:26:13;96885.53;;;33.22;26.94
55289;BME280;41154;45.394;5.734;2022-08-11T12:29:04;96893.34;;;33.56;26.61
55289;BME280;41154;45.394;5.734;2022-08-11T12:31:35;96887.75;;;33.56;27.56
55289;BME280;41154;45.394;5.734;2022-08-11T12:34:10;96895.41;;;33.34;27.58
55289;BME280;41154;45.394;5.734;2022-08-11T12:36:53;96889.56;;;33.00;28.62
55289;BME280;41154;45.394;5.734;2022-08-11T12:39:24;96888.00;;;32.91;26.31
55289;BME280;41154;45.394;5.734;2022-08-11T12:42:13;96875.34;;;32.76;27.86
55289;BME280;41154;45.394;5.734;2022-08-11T12:44:59;96873.25;;;33.12;28.42
55289;BME280;41154;45.394;5.734;2022-08-11T12:47:48;96873.47;;;33.58;28.27
55289;BME280;41154;45.394;5.734;2022-08-11T12:50:33;96869.06;;;33.67;28.27
55289;BME280;41154;45.394;5.734;2022-08-11T12:53:24;96866.28;;;33.67;27.10
55289;BME280;41154;45.394;5.734;2022-08-11T12:55:52;96867.78;;;33.79;27.34
55289;BME280;41154;45.394;5.734;2022-08-11T12:58:40;96863.09;;;33.73;27.63
55289;BME280;41154;45.394;5.734;2022-08-11T13:01:07;96869.50;;;33.55;27.22
55289;BME280;41154;45.394;5.734;2022-08-11T13:03:52;96857.78;;;33.89;25.54
55289;BME280;41154;45.394;5.734;2022-08-11T13:06:37;96858.75;;;33.61;26.96
55289;BME280;41154;45.394;5.734;2022-08-11T13:09:04;96854.09;;;33.40;26.72
55289;BME280;41154;45.394;5.734;2022-08-11T13:11:31;96852.16;;;33.29;26.71
55289;BME280;41154;45.394;5.734;2022-08-11T13:14:16;96848.84;;;33.56;23.77
55289;BME280;41154;45.394;5.734;2022-08-11T13:16:43;96854.19;;;33.92;24.39
55289;BME280;41154;45.394;5.734;2022-08-11T13:19:29;96851.44;;;33.89;26.27
55289;BME280;41154;45.394;5.734;2022-08-11T13:21:56;96849.38;;;34.00;27.26
55289;BME280;41154;45.394;5.734;2022-08-11T13:24:22;96840.75;;;33.83;26.93
55289;BME280;41154;45.394;5.734;2022-08-11T13:26:50;96837.78;;;34.09;25.80
55289;BME280;41154;45.394;5.734;2022-08-11T13:29:18;96833.81;;;34.10;24.87
55289;BME280;41154;45.394;5.734;2022-08-11T13:31:45;96831.72;;;34.21;24.83
55289;BME280;41154;45.394;5.734;2022-08-11T13:34:12;96829.44;;;34.09;25.40
55289;BME280;41154;45.394;5.734;2022-08-11T13:36:39;96828.06;;;33.75;26.23
55289;BME280;41154;45.394;5.734;2022-08-11T13:39:06;96815.28;;;33.89;25.99
55289;BME280;41154;45.394;5.734;2022-08-11T13:41:32;96824.03;;;33.87;26.09
55289;BME280;41154;45.394;5.734;2022-08-11T13:44:09;96817.75;;;33.68;25.39
55289;BME280;41154;45.394;5.734;2022-08-11T13:46:38;96813.34;;;33.82;27.10
55289;BME280;41154;45.394;5.734;2022-08-11T13:49:05;96795.09;;;34.22;26.10
55289;BME280;41154;45.394;5.734;2022-08-11T13:51:35;96804.25;;;33.67;26.20
55289;BME280;41154;45.394;5.734;2022-08-11T13:54:15;96795.69;;;33.99;27.52
55289;BME280;41154;45.394;5.734;2022-08-11T13:56:47;96803.22;;;34.02;27.31
55289;BME280;41154;45.394;5.734;2022-08-11T13:59:17;96797.47;;;34.28;27.89
55289;BME280;41154;45.394;5.734;2022-08-11T14:01:50;96787.31;;;34.07;27.04
55289;BME280;41154;45.394;5.734;2022-08-11T14:04:27;96792.44;;;33.56;26.71
55289;BME280;41154;45.394;5.734;2022-08-11T14:06:55;96782.00;;;33.67;27.02
55289;BME280;41154;45.394;5.734;2022-08-11T14:09:33;96784.78;;;34.19;26.65
55289;BME280;41154;45.394;5.734;2022-08-11T14:12:07;96774.44;;;34.20;26.00
55289;BME280;41154;45.394;5.734;2022-08-11T14:14:58;96775.50;;;34.37;26.27
55289;BME280;41154;45.394;5.734;2022-08-11T14:17:27;96775.16;;;34.31;25.70
55289;BME280;41154;45.394;5.734;2022-08-11T14:19:55;96773.44;;;34.45;24.11
55289;BME280;41154;45.394;5.734;2022-08-11T14:22:22;96771.00;;;34.50;25.82
55289;BME280;41154;45.394;5.734;2022-08-11T14:24:48;96772.78;;;34.30;25.73
55289;BME280;41154;45.394;5.734;2022-08-11T14:27:16;96764.00;;;34.35;25.45
55289;BME280;41154;45.394;5.734;2022-08-11T14:29:42;96767.78;;;34.10;23.79
55289;BME280;41154;45.394;5.734;2022-08-11T14:32:13;96760.00;;;34.36;23.25
55289;BME280;41154;45.394;5.734;2022-08-11T14:34:42;96759.44;;;34.10;22.91
55289;BME280;41154;45.394;5.734;2022-08-11T14:37:12;96747.66;;;34.37;25.03
55289;BME280;41154;45.394;5.734;2022-08-11T14:40:06;96757.06;;;34.09;24.29
55289;BME280;41154;45.394;5.734;2022-08-11T14:42:52;96745.66;;;33.96;23.88
55289;BME280;41154;45.394;5.734;2022-08-11T14:45:38;96738.63;;;33.80;23.01
55289;BME280;41154;45.394;5.734;2022-08-11T14:48:23;96741.25;;;33.98;23.19
55289;BME280;41154;45.394;5.734;2022-08-11T14:50:50;96742.31;;;34.12;24.46
55289;BME280;41154;45.394;5.734;2022-08-11T14:53:21;96741.25;;;33.98;24.89
55289;BME280;41154;45.394;5.734;2022-08-11T14:55:47;96734.47;;;33.47;23.94
55289;BME280;41154;45.394;5.734;2022-08-11T14:58:32;96731.00;;;33.88;25.03
55289;BME280;41154;45.394;5.734;2022-08-11T15:01:00;96731.59;;;34.10;24.70
55289;BME280;41154;45.394;5.734;2022-08-11T15:03:30;96729.19;;;34.12;25.43
55289;BME280;41154;45.394;5.734;2022-08-11T15:06:00;96727.16;;;34.54;25.51
55289;BME280;41154;45.394;5.734;2022-08-11T15:08:35;96725.03;;;34.31;24.55
55289;BME280;41154;45.394;5.734;2022-08-11T15:11:28;96717.56;;;34.25;24.43
55289;BME280;41154;45.394;5.734;2022-08-11T15:14:13;96710.91;;;34.11;26.13
55289;BME280;41154;45.394;5.734;2022-08-11T15:17:00;96711.75;;;34.04;25.46
55289;BME280;41154;45.394;5.734;2022-08-11T15:19:33;96709.69;;;34.16;24.97
55289;BME280;41154;45.394;5.734;2022-08-11T15:21:59;96704.47;;;34.18;24.41
55289;BME280;41154;45.394;5.734;2022-08-11T15:24:44;96700.19;;;34.10;24.74
55289;BME280;41154;45.394;5.734;2022-08-11T15:27:12;96706.47;;;33.76;24.13
55289;BME280;41154;45.394;5.734;2022-08-11T15:29:58;96701.66;;;33.83;24.39
55289;BME280;41154;45.394;5.734;2022-08-11T15:32:45;96696.59;;;33.67;24.67
55289;BME280;41154;45.394;5.734;2022-08-11T15:35:47;96693.75;;;33.75;24.20
55289;BME280;41154;45.394;5.734;2022-08-11T15:38:39;96696.50;;;33.78;25.31
55289;BME280;41154;45.394;5.734;2022-08-11T15:41:06;96692.13;;;33.81;25.00
55289;BME280;41154;45.394;5.734;2022-08-11T15:43:53;96685.06;;;34.11;24.92
55289;BME280;41154;45.394;5.734;2022-08-11T15:46:46;96683.53;;;34.06;26.10
55289;BME280;41154;45.394;5.734;2022-08-11T15:49:31;96690.00;;;33.96;25.20
55289;BME280;41154;45.394;5.734;2022-08-11T15:52:14;96685.84;;;33.70;24.37
55289;BME280;41154;45.394;5.734;2022-08-11T15:54:43;96684.38;;;33.54;24.54
55289;BME280;41154;45.394;5.734;2022-08-11T15:57:14;96680.81;;;33.54;25.44
55289;BME280;41154;45.394;5.734;2022-08-11T16:00:06;96681.97;;;33.56;24.72
55289;BME280;41154;45.394;5.734;2022-08-11T16:02:51;96681.88;;;33.67;25.60
55289;BME280;41154;45.394;5.734;2022-08-11T16:05:22;96678.78;;;33.61;25.18
55289;BME280;41154;45.394;5.734;2022-08-11T16:07:50;96679.03;;;33.78;24.65
55289;BME280;41154;45.394;5.734;2022-08-11T16:10:19;96675.63;;;33.56;24.52
55289;BME280;41154;45.394;5.734;2022-08-11T16:12:56;96674.91;;;33.48;25.07
55289;BME280;41154;45.394;5.734;2022-08-11T16:15:53;96673.56;;;33.11;23.56
55289;BME280;41154;45.394;5.734;2022-08-11T16:18:58;96677.06;;;33.22;23.45
55289;BME280;41154;45.394;5.734;2022-08-11T16:21:30;96668.34;;;33.20;23.92
55289;BME280;41154;45.394;5.734;2022-08-11T16:23:59;96669.59;;;33.12;23.87
55289;BME280;41154;45.394;5.734;2022-08-11T16:26:25;96665.13;;;33.25;25.58
55289;BME280;41154;45.394;5.734;2022-08-11T16:28:55;96665.19;;;33.18;24.92
55289;BME280;41154;45.394;5.734;2022-08-11T16:31:23;96661.19;;;33.23;25.10
55289;BME280;41154;45.394;5.734;2022-08-11T16:33:51;96665.94;;;33.22;23.55
55289;BME280;41154;45.394;5.734;2022-08-11T16:36:20;96664.47;;;33.07;22.96
55289;BME280;41154;45.394;5.734;2022-08-11T16:39:09;96661.28;;;33.05;22.71
55289;BME280;41154;45.394;5.734;2022-08-11T16:41:38;96666.06;;;33.04;22.13
55289;BME280;41154;45.394;5.734;2022-08-11T16:44:24;96659.78;;;32.93;21.84
55289;BME280;41154;45.394;5.734;2022-08-11T16:47:12;96660.13;;;32.99;21.79